Flight Track Log - Related Links

Times and Time Zones

All times are in EST time to prevent confusion due to time zone crossing. See the VRT51 flight status page for this flight to view local times or setup timezone preferences in your user account.

Time Position Orientation Groundspeed Altitude Reporting Facility
EST Latitude Longitude Course Direction KTS km/h feet Rate Location/Type
Sun 16:41:59 26.6431 -79.9408 296° West 250 463 6.300  Level Miami Center
Sun 16:42:59 26.5961 -79.9956 226° Southwest 271 502 9.700 1.850 Climbing Miami Center
Sun 16:43:59 26.5942 -80.0767 268° West 292 541 10.000 1.050 Climbing Miami Center
Sun 16:44:59 26.5900 -80.1789 267° West 316 586 11.800 1.800 Climbing Miami Center
Sun 16:45:59 26.5831 -80.2969 266° West 340 629 13.600 1.650 Climbing Miami Center
Sun 16:46:00 27.2268 -80.4360 296° West  Level Estimated
Sun 16:46:59 26.5786 -80.3944 267° West 350 649 15.100  Level Miami Center
Sun 16:47:59 26.5711 -80.5244 266° West 374 692 16.100 1.200 Climbing Miami Center
Sun 16:48:59 26.6125 -80.6278 294° West 360 666 17.500 1.850 Climbing Miami Center
Sun 16:49:59 26.6981 -80.7003 323° Northwest 368 681 19.800 2.100 Climbing Miami Center
Sun 16:50:59 26.7861 -80.7683 325° Northwest 396 734 21.700 2.100 Climbing Miami Center
Sun 16:51:59 26.8803 -80.8389 326° Northwest 406 752 24.000 2.100 Climbing Miami Center
Sun 16:52:59 26.9783 -80.9217 323° Northwest 423 784 25.900 1.850 Climbing Miami Center
Sun 16:53:59 27.0764 -80.9972 326° Northwest 428 793 27.700 1.900 Climbing Miami Center
Sun 16:54:59 27.1844 -81.0828 325° Northwest 428 793 29.700 1.800 Climbing Miami Center
Sun 16:55:59 27.2844 -81.1614 325° Northwest 433 801 31.300 1.550 Climbing Miami Center
Sun 16:56:59 27.3761 -81.2347 325° Northwest 433 801 32.800 1.700 Climbing Miami Center
Sun 16:57:59 27.4681 -81.3061 325° Northwest 433 801 34.700 2.300 Climbing Miami Center
Sun 16:58:59 27.5678 -81.3872 324° Northwest 414 766 37.400 2.250 Climbing Miami Center
Sun 16:59:59 27.6492 -81.4539 324° Northwest 381 705 39.200 1.300 Climbing Miami Center
Sun 17:00:59 27.7203 -81.5106 325° Northwest 360 666 40.000 400 Climbing Miami Center
Sun 17:01:59 27.8036 -81.5775 325° Northwest 355 658 40.000  Level Miami Center
Sun 17:03:49 27.9650 -81.7014 326° Northwest 386 715 40.000  Level Jacksonville Center
Sun 17:04:49 28.0533 -81.7731 324° Northwest 391 724 40.000  Level Jacksonville Center
Sun 17:05:49 28.1436 -81.8450 325° Northwest 391 724 40.000  Level Jacksonville Center
Sun 17:06:49 28.2381 -81.9078 330° Northwest 391 724 40.000  Level Jacksonville Center
Sun 17:07:49 28.3406 -81.9517 339° North 386 715 40.000  Level Jacksonville Center
Sun 17:08:49 28.4472 -82.0003 338° Northwest 393 727 40.000  Level Jacksonville Center
Sun 17:09:49 28.5500 -82.0464 338° Northwest 398 737 40.000  Level Jacksonville Center
Sun 17:10:49 28.6567 -82.0931 339° North 398 737 40.000  Level Jacksonville Center
Sun 17:11:49 28.7592 -82.1369 339° North 398 737 40.000  Level Jacksonville Center
Sun 17:12:49 28.8617 -82.1836 338° Northwest 398 737 40.000  Level Jacksonville Center
Sun 17:13:49 28.9725 -82.2328 339° North 398 737 40.000  Level Jacksonville Center
Sun 17:14:49 29.0772 -82.2819 338° Northwest 398 737 40.000  Level Jacksonville Center
Sun 17:15:49 29.1817 -82.3289 339° North 398 737 40.000  Level Jacksonville Center
Sun 17:16:49 29.2842 -82.3736 339° North 398 737 40.000  Level Jacksonville Center
Sun 17:17:49 29.3889 -82.4231 338° Northwest 398 737 40.000  Level Jacksonville Center
Sun 17:18:49 29.4933 -82.4678 340° North 398 737 40.000  Level Jacksonville Center
Sun 17:19:49 29.6000 -82.5153 339° North 398 737 40.000  Level Jacksonville Center
Sun 17:20:49 29.7044 -82.5625 339° North 398 737 40.000  Level Jacksonville Center
Sun 17:21:49 29.8111 -82.6100 339° North 398 737 40.000  Level Jacksonville Center
Sun 17:22:49 29.9156 -82.6650 335° Northwest 398 737 40.000  Level Jacksonville Center
Sun 17:23:49 30.0200 -82.7128 338° Northwest 398 737 40.000  Level Jacksonville Center
Sun 17:24:49 30.1225 -82.7556 340° North 398 737 40.000  Level Jacksonville Center
Sun 17:25:49 30.2183 -82.7964 340° North 398 737 40.000  Level Jacksonville Center
Sun 17:26:49 30.3208 -82.8469 337° Northwest 398 737 40.000  Level Jacksonville Center
Sun 17:27:49 30.4231 -82.8925 339° North 398 737 40.000  Level Jacksonville Center
Sun 17:28:49 30.5275 -82.9408 338° Northwest 398 737 40.000  Level Jacksonville Center
Sun 17:29:49 30.6297 -82.9867 339° North 398 737 40.000  Level Jacksonville Center
Sun 17:30:49 30.7319 -83.0375 337° Northwest 398 737 40.000  Level Jacksonville Center
Sun 17:31:49 30.8425 -83.0911 337° Northwest 398 737 40.000  Level Jacksonville Center
Sun 17:32:49 30.9261 -83.1300 338° Northwest 392 726 40.000  Level Jacksonville Center
Sun 17:33:49 31.0367 -83.1836 337° Northwest 397 735 40.000  Level Jacksonville Center
Sun 17:34:49 31.1431 -83.2325 339° North 397 735 40.000  Level Jacksonville Center
Sun 17:36:51 31.3647 -83.3361 338° Northwest 403 747 40.000  Level Atlanta Center
Sun 17:37:51 31.4672 -83.3864 337° Northwest 403 747 40.000  Level Atlanta Center
Sun 17:38:51 31.5678 -83.4319 339° North 398 737 40.000  Level Atlanta Center
Sun 17:39:51 31.6703 -83.4778 339° North 393 727 40.000  Level Atlanta Center
Sun 17:40:51 31.7728 -83.5283 337° Northwest 393 727 40.000  Level Atlanta Center
Sun 17:41:51 31.8753 -83.5767 338° Northwest 393 727 40.000  Level Atlanta Center
Sun 17:42:51 31.9756 -83.6250 338° Northwest 393 727 40.000  Level Atlanta Center
Sun 17:43:51 32.0736 -83.6736 337° Northwest 393 727 40.000  Level Atlanta Center
Sun 17:44:51 32.1719 -83.7222 337° Northwest 388 719 40.000  Level Atlanta Center
Sun 17:45:51 32.2722 -83.7711 338° Northwest 388 719 40.000  Level Atlanta Center
Sun 17:46:51 32.3683 -83.8175 338° Northwest 383 710 40.000  Level Atlanta Center
Sun 17:47:51 32.4686 -83.8667 338° Northwest 383 710 40.000  Level Atlanta Center
Sun 17:48:51 32.5711 -83.9156 338° Northwest 383 710 40.000  Level Atlanta Center
Sun 17:49:51 32.6692 -83.9647 337° Northwest 383 710 40.000  Level Atlanta Center
Sun 17:50:51 32.7672 -84.0142 337° Northwest 383 710 40.000  Level Atlanta Center
Sun 17:51:51 32.8694 -84.0586 340° North 383 710 40.000  Level Atlanta Center
Sun 17:52:51 32.9656 -84.1106 336° Northwest 378 700 40.000  Level Atlanta Center
Sun 17:53:51 33.0658 -84.1628 336° Northwest 378 700 40.000  Level Atlanta Center
Sun 17:54:51 33.1681 -84.2125 338° Northwest 383 710 40.000  Level Atlanta Center
Sun 17:55:51 33.2681 -84.2625 337° Northwest 383 710 40.000  Level Atlanta Center
Sun 17:56:51 33.3681 -84.3100 338° Northwest 383 710 40.000  Level Atlanta Center
Sun 17:57:51 33.4703 -84.3600 338° Northwest 391 724 40.000  Level Atlanta Center
Sun 17:58:51 33.5703 -84.4103 337° Northwest 396 734 40.000  Level Atlanta Center
Sun 17:59:51 33.6517 -84.4481 339° North 396 734 40.000  Level Atlanta Center
Sun 18:00:51 33.7581 -84.4961 339° North 396 734 40.000  Level Atlanta Center
Sun 18:01:51 33.8747 -84.5517 338° Northwest 403 747 40.000  Level Atlanta Center
Sun 18:02:51 33.9808 -84.6025 338° Northwest 403 747 40.000  Level Atlanta Center
Sun 18:03:51 34.0786 -84.6633 333° Northwest 397 735 40.000 -200 Level Atlanta Center
Sun 18:04:51 34.1931 -84.7294 334° Northwest 397 735 39.600 -900 Descending Atlanta Center
Sun 18:05:51 34.2886 -84.7881 333° Northwest 402 745 38.200 -1.500 Descending Atlanta Center
Sun 18:06:51 34.3864 -84.8467 334° Northwest 389 721 36.600 -1.500 Descending Atlanta Center
Sun 18:07:51 34.4861 -84.9083 333° Northwest 389 721 35.200 -1.200 Descending Atlanta Center
Sun 18:08:51 34.5714 -84.9622 333° Northwest 389 721 34.200 -1.100 Descending Atlanta Center
Sun 18:09:51 34.6669 -85.0261 331° Northwest 394 729 33.000 -600 Descending Atlanta Center
Sun 18:10:51 34.7622 -85.1058 326° Northwest 399 739 33.000  Level Atlanta Center
Sun 18:11:51 34.8447 -85.1981 317° Northwest 399 739 33.000 -335 Level Atlanta Center
Sun 18:13:50 35.0111 -85.3731 319° Northwest 400 740 32.000 -1.160 Descending Memphis Center
Sun 18:14:52 35.1003 -85.4586 322° Northwest 404 748 29.500 -2.683 Descending Memphis Center
Sun 18:15:53 35.1953 -85.5539 321° Northwest 431 798 26.500 -2.976 Descending Memphis Center
Sun 18:16:55 35.2892 -85.6458 321° Northwest 433 801 23.400 -2.927 Descending Memphis Center
Sun 18:17:56 35.3739 -85.7314 321° Northwest 403 747 20.500 -2.683 Descending Memphis Center
Sun 18:18:58 35.4547 -85.8117 321° Northwest 382 708 17.900 -2.585 Descending Memphis Center
Sun 18:19:59 35.5497 -85.9092 320° Northwest 371 687 15.200 -1.610 Descending Memphis Center
Sun 18:21:01 35.6169 -85.9933 315° West 349 647 14.600 -878 Descending Memphis Center
Sun 18:22:02 35.6714 -86.0706 311° West 323 599 13.400 -1.171 Descending Memphis Center
Sun 18:23:04 35.7275 -86.1461 312° West 302 560 12.200 -1.171 Descending Memphis Center
Sun 18:24:05 35.7844 -86.2208 313° West 297 550 11.000 -1.171 Descending Memphis Center
Sun 18:25:07 35.8353 -86.2900 312° West 280 518 9.800 -1.220 Descending Memphis Center
Sun 18:26:08 35.8933 -86.3428 324° Northwest 261 483 8.500 -1.317 Descending Memphis Center
Sun 18:27:10 35.9678 -86.3981 329° Northwest 265 491 7.100 -1.268 Descending Memphis Center
Sun 18:28:11 36.0375 -86.4317 339° North 264 489 5.900 -1.024 Descending Memphis Center
Sun 18:29:13 36.1058 -86.4628 340° North 263 488 5.000 -726 Descending Memphis Center
Sun 18:30:15 36.1686 -86.4908 340° North 246 455 4.400 -878 Descending Memphis Center
Sun 18:31:16 36.2300 -86.5189 340° North 237 439 3.200 -1.024 Descending Memphis Center
Sun 18:32:18 36.2681 -86.5644 316° Northwest 196 364 2.300 -585 Descending Memphis Center
Sun 18:33:19 36.2511 -86.6106 246° West 166 307 2.000 -98 Descending Memphis Center
Sun 18:34:21 36.2108 -86.6286 200° South 154 285 2.100 -194 Climbing Memphis Center
Sun 18:35:23 36.1775 -86.6422 198° South 136 253 1.600 -537 Descending Memphis Center
Sun 18:36:24 36.1489 -86.6531 197° South 114 211 1.000 -439 Descending Memphis Center
Sun 18:37:26 36.1150 -86.6667 198° South 113 209 700 -290 Descending Memphis Center
Sun 18:39:00 36.1167 -86.6667 345° North  Level FlightAware Approximate

Login

Don't have an account? Register now (free) for customized features, flight alerts, and more!